createdAt,value
2023-03-29T00:02:09.924Z,1.80
2023-03-29T00:04:57.866Z,1.67
2023-03-29T00:07:43.037Z,1.42
2023-03-29T00:10:28.524Z,1.83
2023-03-29T00:13:15.668Z,1.88
2023-03-29T00:16:00.409Z,1.70
2023-03-29T00:18:45.701Z,1.67
2023-03-29T00:21:31.255Z,1.40
2023-03-29T00:24:16.292Z,1.70
2023-03-29T00:27:01.603Z,2.00
2023-03-29T00:29:46.435Z,1.80
2023-03-29T00:32:32.617Z,1.47
2023-03-29T00:35:20.378Z,1.40
2023-03-29T00:38:06.123Z,1.85
2023-03-29T00:40:51.204Z,1.60
2023-03-29T00:43:58.115Z,1.40
2023-03-29T00:46:49.881Z,1.70
2023-03-29T00:49:35.810Z,1.60
2023-03-29T00:52:22.531Z,1.40
2023-03-29T00:55:22.709Z,1.40
2023-03-29T00:58:13.778Z,1.30
2023-03-29T01:01:04.056Z,1.40
2023-03-29T01:04:00.769Z,1.50
2023-03-29T01:06:58.290Z,1.35
2023-03-29T01:09:50.845Z,1.30
2023-03-29T01:12:43.165Z,1.83
2023-03-29T01:15:28.742Z,1.30
2023-03-29T01:18:17.908Z,1.30
2023-03-29T01:21:26.251Z,1.45
2023-03-29T01:24:37.932Z,1.30
2023-03-29T01:27:51.765Z,1.55
2023-03-29T01:30:50.590Z,1.50
2023-03-29T01:33:43.661Z,1.55
2023-03-29T01:36:41.130Z,1.70
2023-03-29T01:39:28.538Z,1.00
2023-03-29T01:42:42.185Z,1.30
2023-03-29T01:45:35.986Z,1.20
2023-03-29T01:48:55.973Z,1.30
2023-03-29T01:51:49.050Z,1.48
2023-03-29T01:54:41.578Z,1.30
2023-03-29T01:57:29.783Z,1.20
2023-03-29T02:00:19.170Z,1.50
2023-03-29T02:03:08.741Z,1.55
2023-03-29T02:05:55.187Z,1.48
2023-03-29T02:08:41.453Z,1.42
2023-03-29T02:11:30.317Z,1.35
2023-03-29T02:14:16.824Z,1.50
2023-03-29T02:17:23.289Z,1.20
2023-03-29T02:20:48.585Z,1.60
2023-03-29T02:23:39.993Z,1.60
2023-03-29T02:26:29.471Z,1.67
2023-03-29T02:29:15.056Z,1.30
2023-03-29T02:32:09.935Z,1.70
2023-03-29T02:35:01.647Z,1.40
2023-03-29T02:37:49.411Z,1.27
2023-03-29T02:40:37.618Z,1.65
2023-03-29T02:43:26.023Z,1.33
2023-03-29T02:46:13.162Z,1.60
2023-03-29T02:48:59.542Z,1.50
2023-03-29T02:51:47.357Z,1.60
2023-03-29T02:54:32.706Z,1.50
2023-03-29T02:57:26.165Z,1.40
2023-03-29T03:00:17.169Z,1.50
2023-03-29T03:03:02.911Z,1.55
2023-03-29T03:05:52.242Z,1.50
2023-03-29T03:08:39.907Z,1.50
2023-03-29T03:11:24.693Z,1.20
2023-03-29T03:14:10.195Z,1.25
2023-03-29T03:16:55.101Z,1.38
2023-03-29T03:19:39.903Z,1.40
2023-03-29T03:22:26.840Z,1.45
2023-03-29T03:25:18.632Z,1.47
2023-03-29T03:28:07.416Z,1.50
2023-03-29T03:30:52.882Z,1.58
2023-03-29T03:33:37.870Z,1.33
2023-03-29T03:36:26.220Z,1.60
2023-03-29T03:39:11.744Z,1.90
2023-03-29T03:41:59.106Z,1.42
2023-03-29T03:44:49.695Z,1.17
2023-03-29T03:47:37.428Z,1.63
2023-03-29T03:50:25.394Z,1.25
2023-03-29T03:53:10.506Z,1.33
2023-03-29T03:55:55.973Z,1.70
2023-03-29T03:58:43.628Z,1.50
2023-03-29T04:01:28.597Z,1.55
2023-03-29T04:04:14.739Z,1.33
2023-03-29T04:07:02.586Z,1.50
2023-03-29T04:09:47.572Z,1.50
2023-03-29T04:12:33.784Z,1.60
2023-03-29T04:15:22.434Z,1.42
2023-03-29T04:18:07.629Z,1.30
2023-03-29T04:20:52.850Z,1.77
2023-03-29T04:23:37.900Z,1.70
2023-03-29T04:26:28.048Z,1.50
2023-03-29T04:29:13.367Z,1.65
2023-03-29T04:32:01.320Z,1.48
2023-03-29T04:34:50.852Z,1.70
2023-03-29T04:37:40.320Z,1.70
2023-03-29T04:40:25.589Z,1.70
2023-03-29T04:43:15.437Z,1.40
2023-03-29T04:46:00.678Z,1.40
2023-03-29T04:48:45.637Z,1.70
2023-03-29T04:51:31.381Z,1.50
2023-03-29T04:54:18.453Z,1.90
2023-03-29T04:57:11.578Z,1.48
2023-03-29T05:00:04.200Z,1.50
2023-03-29T05:02:49.189Z,1.47
2023-03-29T05:05:34.292Z,1.58
2023-03-29T05:08:23.567Z,1.60
2023-03-29T05:11:10.721Z,1.60
2023-03-29T05:13:59.683Z,1.70
2023-03-29T05:16:44.763Z,1.50
2023-03-29T05:19:29.568Z,1.48
2023-03-29T05:22:15.133Z,1.75
2023-03-29T05:25:00.515Z,1.67
2023-03-29T05:27:48.044Z,1.65
2023-03-29T05:30:33.125Z,1.43
2023-03-29T05:33:18.173Z,1.48
2023-03-29T05:36:06.535Z,1.67
2023-03-29T05:38:51.442Z,1.73
2023-03-29T05:41:36.673Z,3.35
2023-03-29T05:44:26.911Z,3.00
2023-03-29T05:47:11.887Z,2.17
2023-03-29T05:49:58.697Z,2.30
2023-03-29T05:52:44.616Z,1.90
2023-03-29T05:55:29.534Z,1.90
2023-03-29T05:58:19.819Z,2.20
2023-03-29T06:01:14.608Z,1.58
2023-03-29T06:04:03.951Z,1.90
2023-03-29T06:06:48.808Z,1.95
2023-03-29T06:09:34.020Z,2.10
2023-03-29T06:12:22.662Z,2.00
2023-03-29T06:15:10.018Z,1.90
2023-03-29T06:17:55.022Z,1.88
2023-03-29T06:20:40.117Z,2.38
2023-03-29T06:23:25.819Z,2.50
2023-03-29T06:26:10.984Z,2.37
2023-03-29T06:28:56.235Z,2.10
2023-03-29T06:31:41.979Z,1.83
2023-03-29T06:34:27.987Z,1.90
2023-03-29T06:37:14.966Z,1.92
2023-03-29T06:40:00.880Z,1.97
2023-03-29T06:42:46.359Z,1.67
2023-03-29T06:45:38.168Z,3.00
2023-03-29T06:48:23.182Z,2.97
2023-03-29T06:51:08.746Z,2.10
2023-03-29T06:53:56.523Z,2.30
2023-03-29T06:56:41.350Z,2.75
2023-03-29T06:59:28.315Z,3.08
2023-03-29T07:02:18.658Z,2.60
2023-03-29T07:05:06.770Z,2.35
2023-03-29T07:07:59.941Z,2.90
2023-03-29T07:10:47.417Z,2.35
2023-03-29T07:13:35.113Z,2.20
2023-03-29T07:16:20.225Z,2.25
2023-03-29T07:19:05.120Z,2.17
2023-03-29T07:21:54.217Z,1.87
2023-03-29T07:24:44.478Z,1.90
2023-03-29T07:27:29.528Z,2.15
2023-03-29T07:30:17.881Z,1.95
2023-03-29T07:33:03.018Z,2.28
2023-03-29T07:35:48.029Z,2.30
2023-03-29T07:38:33.120Z,2.25
2023-03-29T07:41:20.110Z,2.38
2023-03-29T07:44:08.966Z,1.90
2023-03-29T07:46:54.174Z,2.15
2023-03-29T07:49:41.264Z,2.73
2023-03-29T07:52:28.484Z,2.33
2023-03-29T07:55:13.845Z,2.00
2023-03-29T07:57:59.033Z,2.47
2023-03-29T08:00:44.121Z,2.28
2023-03-29T08:03:29.214Z,2.40
2023-03-29T08:06:16.698Z,1.77
2023-03-29T08:09:01.583Z,1.98
2023-03-29T08:11:46.541Z,2.50
2023-03-29T08:14:31.482Z,2.75
2023-03-29T08:17:19.053Z,2.90
2023-03-29T08:20:05.906Z,2.55
2023-03-29T08:22:55.263Z,2.22
2023-03-29T08:25:40.495Z,2.30
2023-03-29T08:28:25.370Z,2.28
2023-03-29T08:31:13.417Z,2.33
2023-03-29T08:33:59.397Z,2.35
2023-03-29T08:36:44.429Z,2.25
2023-03-29T08:39:30.074Z,2.20
2023-03-29T08:42:29.405Z,1.80
2023-03-29T08:45:27.432Z,2.10
2023-03-29T08:48:25.061Z,2.28
2023-03-29T08:51:27.301Z,1.83
2023-03-29T08:54:21.213Z,2.40
2023-03-29T08:57:13.750Z,1.88
2023-03-29T09:00:02.036Z,2.40
2023-03-29T09:02:48.930Z,2.00
2023-03-29T09:05:37.927Z,1.83
2023-03-29T09:08:24.098Z,1.90
2023-03-29T09:11:24.055Z,2.00
2023-03-29T09:14:19.443Z,1.70
2023-03-29T09:17:31.440Z,1.60
2023-03-29T09:20:27.539Z,1.60
2023-03-29T09:23:46.895Z,1.75
2023-03-29T09:26:41.466Z,1.88
2023-03-29T09:29:50.176Z,1.50
2023-03-29T09:32:43.997Z,1.70
2023-03-29T09:35:35.830Z,1.55
2023-03-29T09:38:22.149Z,1.15
2023-03-29T09:41:20.021Z,1.40
2023-03-29T09:44:20.759Z,1.23
2023-03-29T09:47:29.436Z,1.45
2023-03-29T09:50:35.117Z,1.25
2023-03-29T09:53:21.484Z,1.75
2023-03-29T09:56:08.277Z,1.70
2023-03-29T09:58:53.061Z,1.70
2023-03-29T10:01:41.492Z,1.73
2023-03-29T10:04:26.712Z,1.70
2023-03-29T10:07:20.433Z,1.50
2023-03-29T10:10:10.262Z,1.90
2023-03-29T10:13:00.852Z,1.30
2023-03-29T10:15:59.536Z,1.80
2023-03-29T10:18:44.698Z,1.88
2023-03-29T10:21:31.322Z,1.90
2023-03-29T10:24:25.185Z,1.70
2023-03-29T10:27:11.637Z,1.97
2023-03-29T10:29:59.195Z,1.95
2023-03-29T10:32:44.720Z,1.80
2023-03-29T10:35:34.445Z,1.85
2023-03-29T10:38:22.879Z,2.20
2023-03-29T10:41:11.563Z,1.83
2023-03-29T10:43:57.519Z,1.70
2023-03-29T10:46:43.973Z,1.73
2023-03-29T10:49:29.678Z,1.40
2023-03-29T10:52:16.412Z,1.38
2023-03-29T10:55:01.717Z,1.37
2023-03-29T10:58:07.436Z,0.80
2023-03-29T11:00:56.892Z,1.65
2023-03-29T11:03:57.457Z,1.05
2023-03-29T11:06:58.247Z,1.40
2023-03-29T11:10:04.502Z,1.40
2023-03-29T11:12:57.364Z,1.80
2023-03-29T11:16:09.499Z,1.27
2023-03-29T11:19:20.036Z,1.00
2023-03-29T11:22:16.957Z,1.08
2023-03-29T11:25:18.807Z,1.20
2023-03-29T11:28:15.777Z,1.08
2023-03-29T11:31:09.333Z,0.90
2023-03-29T11:34:23.136Z,1.60
2023-03-29T11:37:30.819Z,1.30
2023-03-29T11:40:49.536Z,1.20
2023-03-29T11:43:41.293Z,1.30
2023-03-29T11:46:46.632Z,1.40
2023-03-29T11:49:49.026Z,1.35
2023-03-29T11:52:40.375Z,1.25
2023-03-29T11:55:28.526Z,1.30
2023-03-29T11:58:19.693Z,1.70
2023-03-29T12:01:09.154Z,0.95
2023-03-29T12:03:59.173Z,0.90
2023-03-29T12:06:56.840Z,1.00
2023-03-29T12:09:50.199Z,1.30
2023-03-29T12:12:43.441Z,1.50
2023-03-29T12:15:40.977Z,1.23
2023-03-29T12:18:41.333Z,1.40
2023-03-29T12:21:29.061Z,1.40
2023-03-29T12:24:16.546Z,1.20
2023-03-29T12:27:11.621Z,1.70
2023-03-29T12:30:08.602Z,1.70
2023-03-29T12:33:16.266Z,1.15
2023-03-29T12:36:10.599Z,1.15
2023-03-29T12:38:55.894Z,1.10
2023-03-29T12:41:44.742Z,1.10
2023-03-29T12:44:33.195Z,1.35
2023-03-29T12:47:23.581Z,1.10
2023-03-29T12:50:24.562Z,0.95
2023-03-29T12:53:30.434Z,1.10
2023-03-29T12:56:17.882Z,1.02
2023-03-29T12:59:23.756Z,1.02
2023-03-29T13:02:14.710Z,0.90
2023-03-29T13:05:01.285Z,1.15
2023-03-29T13:07:47.711Z,1.00
2023-03-29T13:10:42.714Z,0.90
2023-03-29T13:13:36.121Z,0.77
2023-03-29T13:16:30.851Z,0.98
2023-03-29T13:19:35.844Z,1.00
2023-03-29T13:22:36.980Z,1.07
2023-03-29T13:25:44.934Z,1.00
2023-03-29T13:28:42.309Z,1.30
2023-03-29T13:31:40.672Z,1.00
2023-03-29T13:34:45.096Z,1.30
2023-03-29T13:37:53.898Z,1.00
2023-03-29T13:41:23.288Z,1.13
2023-03-29T13:44:29.488Z,1.38
2023-03-29T13:47:35.399Z,1.20
2023-03-29T13:50:37.241Z,0.90
2023-03-29T13:53:45.681Z,0.83
2023-03-29T13:56:55.063Z,1.20
2023-03-29T14:00:16.974Z,0.90
2023-03-29T14:03:07.045Z,1.20
2023-03-29T14:05:58.481Z,1.20
2023-03-29T14:08:44.416Z,1.00
2023-03-29T14:11:30.432Z,1.10
2023-03-29T14:14:17.657Z,1.00
2023-03-29T14:17:02.806Z,0.95
2023-03-29T14:19:48.654Z,1.30
2023-03-29T14:22:33.936Z,1.00
2023-03-29T14:25:21.168Z,1.10
2023-03-29T14:28:24.005Z,1.20
2023-03-29T14:31:17.281Z,0.80
2023-03-29T14:34:05.861Z,1.00
2023-03-29T14:36:53.846Z,0.90
2023-03-29T14:39:40.871Z,1.38
2023-03-29T14:42:28.355Z,1.20
2023-03-29T14:45:16.004Z,1.20
2023-03-29T14:48:02.014Z,0.80
2023-03-29T14:50:47.396Z,1.00
2023-03-29T14:53:34.224Z,1.10
2023-03-29T14:56:24.032Z,1.30
2023-03-29T14:59:38.940Z,1.20
2023-03-29T15:02:30.096Z,1.20
2023-03-29T15:05:42.465Z,0.70
2023-03-29T15:08:34.395Z,1.08
2023-03-29T15:11:23.121Z,1.10
2023-03-29T15:14:15.452Z,1.25
2023-03-29T15:17:21.780Z,1.33
2023-03-29T15:20:11.135Z,1.13
2023-03-29T15:23:08.464Z,1.42
2023-03-29T15:25:53.287Z,1.20
2023-03-29T15:28:54.855Z,1.30
2023-03-29T15:31:41.821Z,1.00
2023-03-29T15:34:31.853Z,1.30
2023-03-29T15:37:16.584Z,1.25
2023-03-29T15:40:06.611Z,1.27
2023-03-29T15:42:53.078Z,1.20
2023-03-29T15:45:38.231Z,1.38
2023-03-29T15:48:28.119Z,1.40
2023-03-29T15:51:13.424Z,1.13
2023-03-29T15:53:58.152Z,1.38
2023-03-29T15:56:50.456Z,1.00
2023-03-29T15:59:36.297Z,1.35
2023-03-29T16:02:24.174Z,1.00
2023-03-29T16:05:10.622Z,1.45
2023-03-29T16:07:55.361Z,1.20
2023-03-29T16:10:43.598Z,1.40
2023-03-29T16:13:28.410Z,1.25
2023-03-29T16:16:13.354Z,1.37
2023-03-29T16:18:58.401Z,1.10
2023-03-29T16:21:43.636Z,1.10
2023-03-29T16:24:31.625Z,1.33
2023-03-29T16:27:17.710Z,1.20
2023-03-29T16:30:02.674Z,0.80
2023-03-29T16:32:47.551Z,1.35
2023-03-29T16:35:37.227Z,1.20
2023-03-29T16:38:24.236Z,1.90
2023-03-29T16:41:16.448Z,1.20
2023-03-29T16:44:01.828Z,1.30
2023-03-29T16:46:46.823Z,0.90
2023-03-29T16:49:32.098Z,1.08
2023-03-29T16:52:16.766Z,1.20
2023-03-29T16:55:01.848Z,0.68
2023-03-29T16:57:47.852Z,0.87
2023-03-29T17:00:33.115Z,1.05
2023-03-29T17:03:18.421Z,1.00
2023-03-29T17:06:04.422Z,1.00
2023-03-29T17:08:50.424Z,0.90
2023-03-29T17:11:35.861Z,1.00
2023-03-29T17:14:21.253Z,1.10
2023-03-29T17:17:06.218Z,1.00
2023-03-29T17:19:51.057Z,0.90
2023-03-29T17:22:36.228Z,1.00
2023-03-29T17:25:22.053Z,1.00
2023-03-29T17:28:07.141Z,1.10
2023-03-29T17:30:52.039Z,1.10
2023-03-29T17:33:37.301Z,0.90
2023-03-29T17:36:24.046Z,1.23
2023-03-29T17:39:09.752Z,1.20
2023-03-29T17:41:54.835Z,1.35
2023-03-29T17:44:39.893Z,1.27
2023-03-29T17:47:24.648Z,1.40
2023-03-29T17:50:11.894Z,1.00
2023-03-29T17:52:56.808Z,1.30
2023-03-29T17:55:42.023Z,1.33
2023-03-29T17:58:26.977Z,1.33
2023-03-29T18:01:14.199Z,1.00
2023-03-29T18:03:59.350Z,1.10
2023-03-29T18:06:45.554Z,1.40
2023-03-29T18:09:31.129Z,1.25
2023-03-29T18:12:16.575Z,1.00
2023-03-29T18:15:02.081Z,1.10
2023-03-29T18:17:47.032Z,1.10
2023-03-29T18:20:31.972Z,1.30
2023-03-29T18:23:17.003Z,1.10
2023-03-29T18:26:04.452Z,1.40
2023-03-29T18:28:50.774Z,1.40
2023-03-29T18:31:35.883Z,1.23
2023-03-29T18:34:21.624Z,1.50
2023-03-29T18:37:07.278Z,1.15
2023-03-29T18:39:52.410Z,1.33
2023-03-29T18:42:37.612Z,1.35
2023-03-29T18:45:22.669Z,4.03
2023-03-29T18:48:07.891Z,2.10
2023-03-29T18:50:55.190Z,2.30
2023-03-29T18:53:41.867Z,1.70
2023-03-29T18:56:27.774Z,1.83
2023-03-29T18:59:12.801Z,1.70
2023-03-29T19:01:57.561Z,1.53
2023-03-29T19:04:42.824Z,1.40
2023-03-29T19:07:27.797Z,1.83
2023-03-29T19:10:12.853Z,1.70
2023-03-29T19:12:57.812Z,1.60
2023-03-29T19:15:42.868Z,1.27
2023-03-29T19:18:27.946Z,1.50
2023-03-29T19:21:13.062Z,1.50
2023-03-29T19:24:00.559Z,1.38
2023-03-29T19:26:47.809Z,1.40
2023-03-29T19:29:32.561Z,1.70
2023-03-29T19:32:17.341Z,1.85
2023-03-29T19:35:02.445Z,1.40
2023-03-29T19:37:47.164Z,1.60
2023-03-29T19:40:32.715Z,1.45
2023-03-29T19:43:18.194Z,1.80
2023-03-29T19:46:10.393Z,1.60
2023-03-29T19:48:56.018Z,1.67
2023-03-29T19:51:44.010Z,2.42
2023-03-29T19:54:29.069Z,3.30
2023-03-29T19:57:13.974Z,3.30
2023-03-29T19:59:59.277Z,3.08
2023-03-29T20:02:44.403Z,3.83
2023-03-29T20:05:29.213Z,2.65
2023-03-29T20:08:14.032Z,1.98
2023-03-29T20:11:02.047Z,2.57
2023-03-29T20:13:47.039Z,2.10
2023-03-29T20:16:34.696Z,2.00
2023-03-29T20:19:25.118Z,2.67
2023-03-29T20:22:11.098Z,1.65
2023-03-29T20:24:57.131Z,2.00
2023-03-29T20:27:42.662Z,2.88
2023-03-29T20:30:27.422Z,2.40
2023-03-29T20:33:12.526Z,2.22
2023-03-29T20:35:57.603Z,2.15
2023-03-29T20:38:42.598Z,2.50
2023-03-29T20:41:27.467Z,1.98
2023-03-29T20:44:13.533Z,2.05
2023-03-29T20:47:08.246Z,1.80
2023-03-29T20:49:56.639Z,2.15
2023-03-29T20:52:41.591Z,1.70
2023-03-29T20:55:26.459Z,2.05
2023-03-29T20:58:11.693Z,1.83
2023-03-29T21:00:58.842Z,2.03
2023-03-29T21:03:44.181Z,1.50
2023-03-29T21:06:30.061Z,1.63
2023-03-29T21:09:20.960Z,1.70
2023-03-29T21:12:06.494Z,2.08
2023-03-29T21:14:51.350Z,1.92
2023-03-29T21:17:37.900Z,1.65
2023-03-29T21:20:22.746Z,1.87
2023-03-29T21:23:07.958Z,2.28
2023-03-29T21:25:53.009Z,9.82
2023-03-29T21:28:37.985Z,5.90
2023-03-29T21:31:22.745Z,5.72
2023-03-29T21:34:07.997Z,2.87
2023-03-29T21:36:52.770Z,2.63
2023-03-29T21:39:38.123Z,2.83
2023-03-29T21:42:22.881Z,3.35
2023-03-29T21:45:08.871Z,1.90
2023-03-29T21:47:54.225Z,2.73
2023-03-29T21:50:39.085Z,3.10
2023-03-29T21:53:25.026Z,2.17
2023-03-29T21:56:11.765Z,2.22
2023-03-29T21:58:56.618Z,2.67
2023-03-29T22:01:41.936Z,2.20
2023-03-29T22:04:35.881Z,2.50
2023-03-29T22:07:26.337Z,2.45
2023-03-29T22:10:12.341Z,2.40
2023-03-29T22:12:57.506Z,2.67
2023-03-29T22:15:42.517Z,2.30
2023-03-29T22:18:30.034Z,2.80
2023-03-29T22:21:23.976Z,2.90
2023-03-29T22:24:09.199Z,2.28
2023-03-29T22:26:54.062Z,2.28
2023-03-29T22:29:39.203Z,2.20
2023-03-29T22:32:24.657Z,2.58
2023-03-29T22:35:09.676Z,2.40
2023-03-29T22:37:55.083Z,2.28
2023-03-29T22:40:40.644Z,2.17
2023-03-29T22:43:25.438Z,2.20
2023-03-29T22:46:12.726Z,2.00
2023-03-29T22:48:57.811Z,1.50
2023-03-29T22:51:42.853Z,1.63
2023-03-29T22:54:28.420Z,2.20
2023-03-29T22:57:13.651Z,1.90
2023-03-29T22:59:58.449Z,1.60
2023-03-29T23:02:43.629Z,1.63
2023-03-29T23:05:28.789Z,1.55
2023-03-29T23:08:13.525Z,1.60
2023-03-29T23:10:58.913Z,1.47
2023-03-29T23:13:44.004Z,1.65
2023-03-29T23:16:28.932Z,1.30
2023-03-29T23:19:13.943Z,1.33
2023-03-29T23:21:58.772Z,1.60
2023-03-29T23:24:46.418Z,1.30
2023-03-29T23:27:31.381Z,1.25
2023-03-29T23:30:18.366Z,1.20
2023-03-29T23:33:03.128Z,1.30
2023-03-29T23:35:48.360Z,1.30
2023-03-29T23:38:35.984Z,1.40
2023-03-29T23:41:20.700Z,1.20
2023-03-29T23:44:06.145Z,1.10
2023-03-29T23:46:50.843Z,1.20
2023-03-29T23:49:36.181Z,1.10
2023-03-29T23:52:21.201Z,1.00
2023-03-29T23:55:08.380Z,1.00
2023-03-29T23:57:53.241Z,1.10
